Map

Track Data

SID SEASON NUMBER BASIN SUBBASIN NAME ISO_TIME NATURE LAT LON WMO_WIND WMO_PRES WMO_AGENCY TRACK_TYPE DIST2LAND LANDFALL IFLAG USA_AGENCY USA_ATCF_ID USA_LAT USA_LON USA_RECORD USA_STATUS USA_WIND USA_PRES USA_SSHS USA_R34_NE USA_R34_SE USA_R34_SW USA_R34_NW USA_R50_NE USA_R50_SE USA_R50_SW USA_R50_NW USA_R64_NE USA_R64_SE USA_R64_SW USA_R64_NW USA_POCI USA_ROCI USA_RMW USA_EYE TOKYO_LAT TOKYO_LON TOKYO_GRADE TOKYO_WIND TOKYO_PRES TOKYO_R50_DIR TOKYO_R50_LONG TOKYO_R50_SHORT TOKYO_R30_DIR TOKYO_R30_LONG TOKYO_R30_SHORT TOKYO_LAND CMA_LAT CMA_LON CMA_CAT CMA_WIND CMA_PRES HKO_LAT HKO_LON HKO_CAT HKO_WIND HKO_PRES NEWDELHI_LAT NEWDELHI_LON NEWDELHI_GRADE NEWDELHI_WIND NEWDELHI_PRES NEWDELHI_CI NEWDELHI_DP NEWDELHI_POCI REUNION_LAT REUNION_LON REUNION_TYPE REUNION_WIND REUNION_PRES REUNION_TNUM REUNION_CI REUNION_RMW REUNION_R34_NE REUNION_R34_SE REUNION_R34_SW REUNION_R34_NW REUNION_R50_NE REUNION_R50_SE REUNION_R50_SW REUNION_R50_NW REUNION_R64_NE REUNION_R64_SE REUNION_R64_SW REUNION_R64_NW BOM_LAT BOM_LON BOM_TYPE BOM_WIND BOM_PRES BOM_TNUM BOM_CI BOM_RMW BOM_R34_NE BOM_R34_SE BOM_R34_SW BOM_R34_NW BOM_R50_NE BOM_R50_SE BOM_R50_SW BOM_R50_NW BOM_R64_NE BOM_R64_SE BOM_R64_SW BOM_R64_NW BOM_ROCI BOM_POCI BOM_EYE BOM_POS_METHOD BOM_PRES_METHOD NADI_LAT NADI_LON NADI_CAT NADI_WIND NADI_PRES WELLINGTON_LAT WELLINGTON_LON WELLINGTON_WIND WELLINGTON_PRES DS824_LAT DS824_LON DS824_STAGE DS824_WIND DS824_PRES TD9636_LAT TD9636_LON TD9636_STAGE TD9636_WIND TD9636_PRES TD9635_LAT TD9635_LON TD9635_WIND TD9635_PRES TD9635_ROCI NEUMANN_LAT NEUMANN_LON NEUMANN_CLASS NEUMANN_WIND NEUMANN_PRES MLC_LAT MLC_LON MLC_CLASS MLC_WIND MLC_PRES USA_GUST BOM_GUST BOM_GUST_PER REUNION_GUST REUNION_GUST_PER USA_SEAHGT USA_SEARAD_NE USA_SEARAD_SE USA_SEARAD_SW USA_SEARAD_NW STORM_SPEED STORM_DIR
1968020N06138 1968 9 WP MM NOT_NAMED 1968-01-20 06:00:00 TS 6.20000 138.000 main 817 817 __O___________ -1 6.20000 138.000 0 1006 14 3
1968020N06138 1968 9 WP MM NOT_NAMED 1968-01-20 09:00:00 TS 6.89253 138.037 main 892 892 __P___________ -1 6.89253 138.037 0 1004 13 1
1968020N06138 1968 9 WP MM NOT_NAMED 1968-01-20 12:00:00 TS 7.50000 138.000 main 956 956 __O___________ -1 7.50000 138.000 0 1002 11 349
1968020N06138 1968 9 WP MM NOT_NAMED 1968-01-20 15:00:00 TS 7.95992 137.825 main 1005 1005 __P___________ -1 7.95992 137.825 0 1002 9 328
1968020N06138 1968 9 WP MM NOT_NAMED 1968-01-20 18:00:00 TS 8.30000 137.500 main 1030 1030 __O___________ -1 8.30000 137.500 0 1002 10 308
1968020N06138 1968 9 WP MM NOT_NAMED 1968-01-20 21:00:00 TS 8.58008 137.030 main 1053 1052 __P___________ -1 8.58008 137.030 0 1002 11 297
1968020N06138 1968 9 WP MM NOT_NAMED 1968-01-21 00:00:00 TS 8.80000 136.500 main 1069 1045 __O___________ -1 8.80000 136.500 1 23 1002 11 294
1968020N06138 1968 9 WP MM NOT_NAMED 1968-01-21 03:00:00 TS 9.01499 136.020 main 1045 1004 __P___________ -1 9.01499 136.020 1 23 1002 10 294
1968020N06138 1968 9 WP MM NOT_NAMED 1968-01-21 06:00:00 TS 9.20000 135.600 main 1004 974 __O___________ -1 9.20000 135.600 1 23 1002 8 295
1968020N06138 1968 9 WP MM NOT_NAMED 1968-01-21 09:00:00 TS 9.35737 135.292 main 976 946 __P___________ -1 9.35737 135.292 1 23 1002 7 297
1968020N06138 1968 9 WP MM NOT_NAMED 1968-01-21 12:00:00 TS 9.50000 135.000 main 946 905 __O___________ -1 9.50000 135.000 1 23 1002 7 294
1968020N06138 1968 9 WP MM NOT_NAMED 1968-01-21 15:00:00 TS 9.65753 134.608 main 908 868 __P___________ -1 9.65753 134.608 1 23 1002 8 291
1968020N06138 1968 9 WP MM NOT_NAMED 1968-01-21 18:00:00 TS 9.80000 134.200 main 868 839 __O___________ -1 9.80000 134.200 1 23 1002 8 288
1968020N06138 1968 9 WP MM NOT_NAMED 1968-01-21 21:00:00 TS 9.89992 133.850 main 829 801 __P___________ -1 9.89992 133.850 1 23 1002 7 286
1968020N06138 1968 9 WP MM NOT_NAMED 1968-01-22 00:00:00 TS 10.0000 133.500 main 801 760 __O___________ -1 10.0000 133.500 1 23 1002 8 287
1968020N06138 1968 9 WP MM NOT_NAMED 1968-01-22 03:00:00 TS 10.1275 133.085 main 760 722 __P___________ -1 10.1275 133.085 1 26 1002 8 291
1968020N06138 1968 9 WP MM NOT_NAMED 1968-01-22 06:00:00 TS 10.3000 132.700 main 722 695 __O___________ -1 10.3000 132.700 1 29 1002 8 302
1968020N06138 1968 9 WP MM NOT_NAMED 1968-01-22 09:00:00 TS 10.5425 132.398 main 695 678 __P___________ -1 10.5425 132.398 1 29 1002 7 315
1968020N06138 1968 9 WP MM NOT_NAMED 1968-01-22 12:00:00 TS 10.8000 132.200 main 681 673 __O___________ -1 10.8000 132.200 1 29 1002 5 331
1968020N06138 1968 9 WP MM NOT_NAMED 1968-01-22 15:00:00 TS 11.0150 132.127 main 677 677 __P___________ -1 11.0150 132.127 1 29 1002 4 347
1968020N06138 1968 9 WP MM NOT_NAMED 1968-01-22 18:00:00 TS 11.2000 132.100 main 683 677 __O___________ -1 11.2000 132.100 1 29 1002 4 340
1968020N06138 1968 9 WP MM NOT_NAMED 1968-01-22 21:00:00 TS 11.3500 132.007 main 678 667 __P___________ -1 11.3500 132.007 1 29 1003 4 327
1968020N06138 1968 9 WP MM NOT_NAMED 1968-01-23 00:00:00 TS 11.5000 131.900 main 668 658 __O___________ -1 11.5000 131.900 1 29 1004 4 333
1968020N06138 1968 9 WP MM NOT_NAMED 1968-01-23 03:00:00 TS 11.7075 131.822 main 659 649 __P___________ -1 11.7075 131.822 1 29 1004 4 334
1968020N06138 1968 9 WP MM NOT_NAMED 1968-01-23 06:00:00 TS 11.9000 131.700 main 651 631 __O___________ -1 11.9000 131.700 1 29 1004 5 314
1968020N06138 1968 9 WP MM NOT_NAMED 1968-01-23 09:00:00 TS 12.0601 131.450 main 633 601 __P___________ -1 12.0601 131.450 1 1005 5 292
1968020N06138 1968 9 WP MM NOT_NAMED 1968-01-23 12:00:00 TS 12.1000 131.200 main 601 588 __O___________ -1 12.1000 131.200 0 1006 4 253
1968020N06138 1968 9 WP MM NOT_NAMED 1968-01-23 15:00:00 TS 11.9450 131.062 main 586 572 __P___________ -1 11.9450 131.062 0 1006 4 206
1968020N06138 1968 9 WP MM NOT_NAMED 1968-01-23 18:00:00 TS 11.7000 131.000 main 572 570 __O___________ -1 11.7000 131.000 0 1006 5 189
1968020N06138 1968 9 WP MM NOT_NAMED 1968-01-23 21:00:00 TS 11.5000 130.978 main 570 568 __P___________ -1 11.5000 130.978 0 1006 4 0
1968020N06138 1968 9 WP MM NOT_NAMED 1968-01-24 00:00:00 TS 11.3000 131.000 main 568 567 __O___________ -1 11.3000 131.000 0 1006 4 172
1968020N06138 1968 9 WP MM NOT_NAMED 1968-01-24 03:00:00 TS 11.0925 131.027 main 567 563 __P___________ -1 11.0925 131.027 0 1006 4 167
1968020N06138 1968 9 WP MM NOT_NAMED 1968-01-24 06:00:00 TS 10.9000 131.100 main 569 566 __O___________ -1 10.9000 131.100 0 1006 4 149
1968020N06138 1968 9 WP MM NOT_NAMED 1968-01-24 09:00:00 TS 10.7350 131.243 main 573 573 __P___________ -1 10.7350 131.243 0 1006 4 136
1968020N06138 1968 9 WP MM NOT_NAMED 1968-01-24 12:00:00 TS 10.6000 131.400 main 591 588 __O___________ -1 10.6000 131.400 0 1006 4 135
1968020N06138 1968 9 WP MM NOT_NAMED 1968-01-24 15:00:00 TS 10.4850 131.492 main 599 596 __P___________ -1 10.4850 131.492 0 1006 3 135
1968020N06138 1968 9 WP MM NOT_NAMED 1968-01-24 18:00:00 TS 10.4000 131.600 main 607 607 __O___________ -1 10.4000 131.600 0 1006 3 126
1968020N06138 1968 9 WP MM NOT_NAMED 1968-01-24 21:00:00 TS 10.2974 131.755 main 626 626 __P___________ -1 10.2974 131.755 0 1007 4 104
1968020N06138 1968 9 WP MM NOT_NAMED 1968-01-25 00:00:00 TS 10.3000 132.000 main 647 647 __O___________ -1 10.3000 132.000 0 1008 6 75
1968020N06138 1968 9 WP MM NOT_NAMED 1968-01-25 03:00:00 TS 10.4525 132.363 main 695 695 __P___________ -1 10.4525 132.363 0 1008 9 58
1968020N06138 1968 9 WP MM NOT_NAMED 1968-01-25 06:00:00 TS 10.8000 132.800 main 745 745 __O___________ -1 10.8000 132.800 0 1008 12 44
1968020N06138 1968 9 WP MM NOT_NAMED 1968-01-25 09:00:00 TS 11.3248 133.213 main 801 801 __P___________ -1 11.3248 133.213 0 1008 15 36
1968020N06138 1968 9 WP MM NOT_NAMED 1968-01-25 12:00:00 TS 12.0000 133.700 main 868 868 __O___________ -1 12.0000 133.700 0 1008 18 37
1968020N06138 1968 9 WP MM NOT_NAMED 1968-01-25 15:00:00 TS 12.7379 134.311 main 944 944 __P___________ -1 12.7379 134.311 0 1008 20 40
1968020N06138 1968 9 WP MM NOT_NAMED 1968-01-25 18:00:00 TS 13.5000 135.000 main 1038 __O___________ -1 13.5000 135.000 0 1008 20 41

Digital Typhoon Data and Search

About IBTrACS Database

This database is a web-friendly format of International Best Track Archive for Climate Stewardship (IBTrACS), a global best track data archive curated by NOAA dating back to 1842.

Updated: 2021-10-19